createdAt,value
2023-01-29T00:02:15.863Z,-0.62
2023-01-29T00:04:43.018Z,-0.61
2023-01-29T00:07:10.174Z,-0.63
2023-01-29T00:09:37.342Z,-0.66
2023-01-29T00:12:04.648Z,-0.69
2023-01-29T00:14:31.817Z,-0.72
2023-01-29T00:16:59.114Z,-0.76
2023-01-29T00:19:26.196Z,-0.79
2023-01-29T00:21:53.524Z,-0.79
2023-01-29T00:24:20.768Z,-0.78
2023-01-29T00:26:50.318Z,-0.77
2023-01-29T00:29:18.033Z,-0.78
2023-01-29T00:31:45.922Z,-0.79
2023-01-29T00:34:13.605Z,-0.82
2023-01-29T00:36:40.886Z,-0.83
2023-01-29T00:39:10.956Z,-0.83
2023-01-29T00:41:57.961Z,-0.83
2023-01-29T00:44:44.101Z,-0.84
2023-01-29T00:47:29.984Z,-0.81
2023-01-29T00:49:57.750Z,-0.81
2023-01-29T00:52:24.931Z,-0.80
2023-01-29T00:54:55.572Z,-0.80
2023-01-29T00:57:23.394Z,-0.80
2023-01-29T00:59:50.651Z,-0.75
2023-01-29T01:02:36.494Z,-0.69
2023-01-29T01:05:07.911Z,-0.65
2023-01-29T01:07:35.159Z,-0.63
2023-01-29T01:10:21.035Z,-0.64
2023-01-29T01:12:54.624Z,-0.63
2023-01-29T01:15:24.015Z,-0.62
2023-01-29T01:18:01.296Z,-0.61
2023-01-29T01:20:31.725Z,-0.61
2023-01-29T01:22:58.926Z,-0.61
2023-01-29T01:25:27.440Z,-0.60
2023-01-29T01:27:57.487Z,-0.60
2023-01-29T01:30:24.935Z,-0.60
2023-01-29T01:32:52.236Z,-0.61
2023-01-29T01:35:19.411Z,-0.63
2023-01-29T01:37:46.699Z,-0.61
2023-01-29T01:40:19.448Z,-0.58
2023-01-29T01:42:52.013Z,-0.55
2023-01-29T01:45:22.347Z,-0.54
2023-01-29T01:47:54.657Z,-0.52
2023-01-29T01:50:29.715Z,-0.51
2023-01-29T01:53:05.183Z,-0.51
2023-01-29T01:55:35.123Z,-0.49
2023-01-29T01:58:18.476Z,-0.46
2023-01-29T02:00:45.748Z,-0.45
2023-01-29T02:03:32.297Z,-0.48
2023-01-29T02:06:19.457Z,-0.48
2023-01-29T02:09:18.069Z,-0.49
2023-01-29T02:11:45.376Z,-0.51
2023-01-29T02:14:12.857Z,-0.52
2023-01-29T02:16:40.037Z,-0.50
2023-01-29T02:19:16.862Z,-0.48
2023-01-29T02:21:50.263Z,-0.50
2023-01-29T02:24:36.330Z,-0.51
2023-01-29T02:27:07.780Z,-0.52
2023-01-29T02:29:47.063Z,-0.54
2023-01-29T02:32:22.251Z,-0.53
2023-01-29T02:35:23.680Z,-0.49
2023-01-29T02:38:01.941Z,-0.49
2023-01-29T02:41:07.236Z,-0.50
2023-01-29T02:43:48.369Z,-0.52
2023-01-29T02:46:25.894Z,-0.50
2023-01-29T02:48:59.781Z,-0.48
2023-01-29T02:51:44.138Z,-0.47
2023-01-29T02:54:23.123Z,-0.47
2023-01-29T02:57:14.879Z,-0.50
2023-01-29T02:59:48.453Z,-0.51
2023-01-29T03:02:22.273Z,-0.51
2023-01-29T03:05:00.062Z,-0.47
2023-01-29T03:07:46.972Z,-0.48
2023-01-29T03:10:29.085Z,-0.48
2023-01-29T03:13:21.030Z,-0.50
2023-01-29T03:15:55.067Z,-0.50
2023-01-29T03:19:02.132Z,-0.49
2023-01-29T03:21:57.682Z,-0.48
2023-01-29T03:24:49.468Z,-0.47
2023-01-29T03:27:40.331Z,-0.47
2023-01-29T03:30:31.699Z,-0.52
2023-01-29T03:33:11.447Z,-0.55
2023-01-29T03:35:48.508Z,-0.55
2023-01-29T03:38:16.106Z,-0.52
2023-01-29T03:40:57.937Z,-0.50
2023-01-29T03:43:51.119Z,-0.51
2023-01-29T03:46:44.360Z,-0.51
2023-01-29T03:49:22.055Z,-0.51
2023-01-29T03:51:58.396Z,-0.50
2023-01-29T03:54:41.036Z,-0.49
2023-01-29T03:57:29.977Z,-0.48
2023-01-29T04:00:09.210Z,-0.47
2023-01-29T04:03:26.384Z,-0.46
2023-01-29T04:06:14.015Z,-0.45
2023-01-29T04:09:13.239Z,-0.45
2023-01-29T04:11:48.021Z,-0.47
2023-01-29T04:14:15.732Z,-0.49
2023-01-29T04:16:51.587Z,-0.52
2023-01-29T04:19:39.758Z,-0.55
2023-01-29T04:22:32.707Z,-0.55
2023-01-29T04:25:08.559Z,-0.56
2023-01-29T04:28:07.093Z,-0.54
2023-01-29T04:31:12.359Z,-0.53
2023-01-29T04:33:45.564Z,-0.49
2023-01-29T04:36:31.016Z,-0.46
2023-01-29T04:39:13.812Z,-0.45
2023-01-29T04:41:55.681Z,-0.46
2023-01-29T04:44:34.274Z,-0.48
2023-01-29T04:47:04.048Z,-0.50
2023-01-29T04:49:43.622Z,-0.50
2023-01-29T04:52:29.491Z,-0.49
2023-01-29T04:55:08.952Z,-0.50
2023-01-29T04:57:46.368Z,-0.50
2023-01-29T05:00:16.490Z,-0.52
2023-01-29T05:02:46.001Z,-0.57
2023-01-29T05:05:15.760Z,-0.56
2023-01-29T05:07:44.267Z,-0.58
2023-01-29T05:10:13.539Z,-0.61
2023-01-29T05:12:43.713Z,-0.64
2023-01-29T05:15:17.674Z,-0.68
2023-01-29T05:17:44.937Z,-0.70
2023-01-29T05:20:12.819Z,-0.70
2023-01-29T05:22:41.596Z,-0.70
2023-01-29T05:25:24.762Z,-0.71
2023-01-29T05:28:11.990Z,-0.73
2023-01-29T05:30:40.278Z,-0.75
2023-01-29T05:33:17.341Z,-0.77
2023-01-29T05:35:45.285Z,-0.78
2023-01-29T05:38:13.102Z,-0.78
2023-01-29T05:40:40.353Z,-0.79
2023-01-29T05:43:18.008Z,-0.78
2023-01-29T05:45:53.808Z,-0.78
2023-01-29T05:48:21.035Z,-0.77
2023-01-29T05:50:48.414Z,-0.74
2023-01-29T05:53:15.625Z,-0.71
2023-01-29T05:55:48.812Z,-0.71
2023-01-29T05:58:16.245Z,-0.71
2023-01-29T06:00:43.445Z,-0.71
2023-01-29T06:03:10.704Z,-0.70
2023-01-29T06:05:38.666Z,-0.68
2023-01-29T06:08:07.300Z,-0.71
2023-01-29T06:10:34.886Z,-0.72
2023-01-29T06:13:02.113Z,-0.74
2023-01-29T06:15:29.321Z,-0.73
2023-01-29T06:17:57.319Z,-0.71
2023-01-29T06:20:25.188Z,-0.67
2023-01-29T06:22:52.438Z,-0.63
2023-01-29T06:25:19.560Z,-0.65
2023-01-29T06:27:46.781Z,-0.69
2023-01-29T06:30:14.647Z,-0.70
2023-01-29T06:32:42.078Z,-0.70
2023-01-29T06:35:10.381Z,-0.68
2023-01-29T06:37:37.611Z,-0.67
2023-01-29T06:40:05.247Z,-0.69
2023-01-29T06:42:32.473Z,-0.71
2023-01-29T06:44:59.629Z,-0.70
2023-01-29T06:47:27.701Z,-0.67
2023-01-29T06:49:55.157Z,-0.64
2023-01-29T06:52:22.261Z,-0.64
2023-01-29T06:54:49.508Z,-0.65
2023-01-29T06:57:16.683Z,-0.67
2023-01-29T06:59:43.908Z,-0.68
2023-01-29T07:02:11.243Z,-0.67
2023-01-29T07:04:39.345Z,-0.65
2023-01-29T07:07:12.916Z,-0.66
2023-01-29T07:09:41.914Z,-0.65
2023-01-29T07:12:11.723Z,-0.64
2023-01-29T07:14:38.872Z,-0.64
2023-01-29T07:17:05.947Z,-0.62
2023-01-29T07:19:33.178Z,-0.62
2023-01-29T07:22:02.620Z,-0.62
2023-01-29T07:24:30.032Z,-0.61
2023-01-29T07:26:57.263Z,-0.60
2023-01-29T07:29:24.452Z,-0.61
2023-01-29T07:31:51.836Z,-0.61
2023-01-29T07:34:19.177Z,-0.62
2023-01-29T07:36:46.299Z,-0.64
2023-01-29T07:39:13.552Z,-0.64
2023-01-29T07:41:40.760Z,-0.63
2023-01-29T07:44:15.965Z,-0.62
2023-01-29T07:46:43.359Z,-0.61
2023-01-29T07:49:11.195Z,-0.64
2023-01-29T07:51:38.344Z,-0.67
2023-01-29T07:54:05.627Z,-0.68
2023-01-29T07:56:32.743Z,-0.68
2023-01-29T07:59:00.201Z,-0.68
2023-01-29T08:01:27.446Z,-0.67
2023-01-29T08:03:54.720Z,-0.65
2023-01-29T08:06:21.816Z,-0.63
2023-01-29T08:08:49.032Z,-0.61
2023-01-29T08:11:16.214Z,-0.58
2023-01-29T08:13:43.386Z,-0.55
2023-01-29T08:16:10.690Z,-0.57
2023-01-29T08:18:38.735Z,-0.59
2023-01-29T08:21:06.091Z,-0.57
2023-01-29T08:23:33.253Z,-0.53
2023-01-29T08:26:03.230Z,-0.49
2023-01-29T08:28:30.446Z,-0.48
2023-01-29T08:30:57.886Z,-0.47
2023-01-29T08:33:38.316Z,-0.44
2023-01-29T08:36:07.290Z,-0.40
2023-01-29T08:38:36.063Z,-0.40
2023-01-29T08:41:03.602Z,-0.39
2023-01-29T08:43:30.809Z,-0.40
2023-01-29T08:45:58.103Z,-0.35
2023-01-29T08:48:25.419Z,-0.33
2023-01-29T08:50:52.585Z,-0.34
2023-01-29T08:53:24.470Z,-0.34
2023-01-29T08:55:52.539Z,-0.34
2023-01-29T08:58:20.081Z,-0.31
2023-01-29T09:00:47.309Z,-0.29
2023-01-29T09:03:14.702Z,-0.26
2023-01-29T09:05:42.097Z,-0.26
2023-01-29T09:08:10.519Z,-0.27
2023-01-29T09:10:37.748Z,-0.27
2023-01-29T09:13:05.154Z,-0.28
2023-01-29T09:15:32.435Z,-0.29
2023-01-29T09:18:04.041Z,-0.29
2023-01-29T09:20:31.444Z,-0.28
2023-01-29T09:22:59.364Z,-0.26
2023-01-29T09:25:26.462Z,-0.22
2023-01-29T09:27:54.894Z,-0.21
2023-01-29T09:30:22.247Z,-0.21
2023-01-29T09:32:53.640Z,-0.20
2023-01-29T09:35:24.670Z,-0.17
2023-01-29T09:37:52.409Z,-0.13
2023-01-29T09:40:29.146Z,-0.10
2023-01-29T09:43:09.671Z,-0.11
2023-01-29T09:45:41.258Z,-0.11
2023-01-29T09:48:12.033Z,-0.08
2023-01-29T09:50:43.740Z,-0.06
2023-01-29T09:53:13.891Z,-0.07
2023-01-29T09:55:48.511Z,-0.09
2023-01-29T09:58:25.527Z,-0.08
2023-01-29T10:01:05.226Z,-0.05
2023-01-29T10:03:41.197Z,-0.04
2023-01-29T10:06:29.159Z,-0.06
2023-01-29T10:09:11.670Z,-0.06
2023-01-29T10:11:54.463Z,-0.06
2023-01-29T10:14:38.197Z,-0.05
2023-01-29T10:17:39.579Z,-0.03
2023-01-29T10:20:25.268Z,-0.06
2023-01-29T10:23:17.225Z,-0.06
2023-01-29T10:25:47.471Z,-0.07
2023-01-29T10:28:29.923Z,-0.06
2023-01-29T10:31:06.307Z,-0.05
2023-01-29T10:33:59.488Z,-0.04
2023-01-29T10:36:36.439Z,-0.03
2023-01-29T10:39:03.715Z,-0.02
2023-01-29T10:41:37.139Z,-0.02
2023-01-29T10:44:28.021Z,0.01
2023-01-29T10:46:58.357Z,0.02
2023-01-29T10:50:13.623Z,0.01
2023-01-29T10:52:50.067Z,0.03
2023-01-29T10:55:36.959Z,0.05
2023-01-29T10:58:25.748Z,0.06
2023-01-29T11:00:53.004Z,0.06
2023-01-29T11:03:30.586Z,0.08
2023-01-29T11:06:16.233Z,0.08
2023-01-29T11:08:51.156Z,0.10
2023-01-29T11:11:22.459Z,0.09
2023-01-29T11:14:24.751Z,0.08
2023-01-29T11:16:52.176Z,0.11
2023-01-29T11:19:36.616Z,0.12
2023-01-29T11:22:04.529Z,0.14
2023-01-29T11:24:31.710Z,0.15
2023-01-29T11:27:00.297Z,0.15
2023-01-29T11:29:30.223Z,0.13
2023-01-29T11:31:59.765Z,0.13
2023-01-29T11:34:33.258Z,0.13
2023-01-29T11:37:03.496Z,0.14
2023-01-29T11:39:33.233Z,0.15
2023-01-29T11:42:04.145Z,0.15
2023-01-29T11:44:40.506Z,0.16
2023-01-29T11:47:16.539Z,0.16
2023-01-29T11:49:49.707Z,0.15
2023-01-29T11:52:20.985Z,0.13
2023-01-29T11:54:55.532Z,0.11
2023-01-29T11:57:25.670Z,0.14
2023-01-29T11:59:55.257Z,0.16
2023-01-29T12:02:31.745Z,0.18
2023-01-29T12:05:15.924Z,0.20
2023-01-29T12:07:46.352Z,0.23
2023-01-29T12:10:36.850Z,0.25
2023-01-29T12:13:10.014Z,0.26
2023-01-29T12:15:39.316Z,0.26
2023-01-29T12:18:16.769Z,0.26
2023-01-29T12:21:05.261Z,0.28
2023-01-29T12:23:51.072Z,0.34
2023-01-29T12:26:39.580Z,0.37
2023-01-29T12:29:25.722Z,0.38
2023-01-29T12:32:17.854Z,0.37
2023-01-29T12:34:47.412Z,0.35
2023-01-29T12:37:25.148Z,0.36
2023-01-29T12:39:52.520Z,0.39
2023-01-29T12:42:24.585Z,0.38
2023-01-29T12:45:09.069Z,0.36
2023-01-29T12:47:40.013Z,0.38
2023-01-29T12:50:18.161Z,0.38
2023-01-29T12:52:52.095Z,0.36
2023-01-29T12:55:28.103Z,0.35
2023-01-29T12:57:58.104Z,0.35
2023-01-29T13:00:46.875Z,0.35
2023-01-29T13:03:17.521Z,0.35
2023-01-29T13:05:48.631Z,0.35
2023-01-29T13:08:37.927Z,0.35
2023-01-29T13:11:11.354Z,0.34
2023-01-29T13:13:54.633Z,0.32
2023-01-29T13:16:26.279Z,0.33
2023-01-29T13:18:58.043Z,0.32
2023-01-29T13:21:34.020Z,0.31
2023-01-29T13:24:11.212Z,0.33
2023-01-29T13:26:40.714Z,0.35
2023-01-29T13:29:25.768Z,0.35
2023-01-29T13:31:55.904Z,0.37
2023-01-29T13:34:28.594Z,0.36
2023-01-29T13:36:59.262Z,0.37
2023-01-29T13:39:44.666Z,0.38
2023-01-29T13:42:21.329Z,0.40
2023-01-29T13:44:51.441Z,0.38
2023-01-29T13:47:39.345Z,0.37
2023-01-29T13:50:08.253Z,0.39
2023-01-29T13:52:43.982Z,0.40
2023-01-29T13:55:13.899Z,0.41
2023-01-29T13:57:43.979Z,0.39
2023-01-29T14:00:33.945Z,0.36
2023-01-29T14:03:01.144Z,0.37
2023-01-29T14:05:29.579Z,0.41
2023-01-29T14:08:06.749Z,0.43
2023-01-29T14:10:35.271Z,0.45
2023-01-29T14:13:11.844Z,0.44
2023-01-29T14:15:40.189Z,0.45
2023-01-29T14:18:25.335Z,0.45
2023-01-29T14:21:28.479Z,0.45
2023-01-29T14:24:08.515Z,0.46
2023-01-29T14:26:38.806Z,0.50
2023-01-29T14:29:34.393Z,0.52
2023-01-29T14:32:25.063Z,0.50
2023-01-29T14:34:55.258Z,0.51
2023-01-29T14:37:26.556Z,0.53
2023-01-29T14:39:57.822Z,0.55
2023-01-29T14:42:27.509Z,0.56
2023-01-29T14:44:54.688Z,0.56
2023-01-29T14:47:27.497Z,0.53
2023-01-29T14:49:56.333Z,0.53
2023-01-29T14:52:42.323Z,0.54
2023-01-29T14:55:19.619Z,0.55
2023-01-29T14:57:48.941Z,0.54
2023-01-29T15:00:24.283Z,0.52
2023-01-29T15:03:01.336Z,0.51
2023-01-29T15:05:35.660Z,0.52
2023-01-29T15:08:42.906Z,0.51
2023-01-29T15:11:36.504Z,0.49
2023-01-29T15:14:19.017Z,0.45
2023-01-29T15:17:06.136Z,0.44
2023-01-29T15:19:44.993Z,0.43
2023-01-29T15:22:18.087Z,0.43
2023-01-29T15:24:47.060Z,0.43
2023-01-29T15:27:17.330Z,0.41
2023-01-29T15:29:50.813Z,0.41
2023-01-29T15:32:29.109Z,0.41
2023-01-29T15:34:58.761Z,0.44
2023-01-29T15:37:28.571Z,0.42
2023-01-29T15:39:56.840Z,0.41
2023-01-29T15:42:25.938Z,0.41
2023-01-29T15:44:56.858Z,0.41
2023-01-29T15:47:31.322Z,0.42
2023-01-29T15:49:58.575Z,0.46
2023-01-29T15:52:35.271Z,0.48
2023-01-29T15:55:06.223Z,0.47
2023-01-29T15:57:40.896Z,0.47
2023-01-29T16:00:21.327Z,0.50
2023-01-29T16:02:48.500Z,0.53
2023-01-29T16:05:19.668Z,0.55
2023-01-29T16:07:47.540Z,0.57
2023-01-29T16:10:21.408Z,0.54
2023-01-29T16:12:51.758Z,0.53
2023-01-29T16:15:34.828Z,0.55
2023-01-29T16:18:17.055Z,0.57
2023-01-29T16:20:50.399Z,0.56
2023-01-29T16:23:21.240Z,0.52
2023-01-29T16:25:49.785Z,0.50
2023-01-29T16:28:18.010Z,0.50
2023-01-29T16:30:45.489Z,0.48
2023-01-29T16:33:17.236Z,0.45
2023-01-29T16:35:52.026Z,0.41
2023-01-29T16:38:30.943Z,0.41
2023-01-29T16:41:28.923Z,0.44
2023-01-29T16:44:04.770Z,0.44
2023-01-29T16:46:34.986Z,0.42
2023-01-29T16:49:02.814Z,0.42
2023-01-29T16:51:47.931Z,0.42
2023-01-29T16:54:18.322Z,0.42
2023-01-29T16:56:52.138Z,0.41
2023-01-29T16:59:26.966Z,0.41
2023-01-29T17:01:57.272Z,0.39
2023-01-29T17:04:24.445Z,0.38
2023-01-29T17:06:57.816Z,0.39
2023-01-29T17:09:29.641Z,0.40
2023-01-29T17:12:02.717Z,0.42
2023-01-29T17:14:32.352Z,0.44
2023-01-29T17:17:05.564Z,0.44
2023-01-29T17:19:32.817Z,0.44
2023-01-29T17:22:00.137Z,0.43
2023-01-29T17:24:27.318Z,0.43
2023-01-29T17:26:54.615Z,0.43
2023-01-29T17:29:27.592Z,0.41
2023-01-29T17:31:56.149Z,0.43
2023-01-29T17:34:24.326Z,0.46
2023-01-29T17:36:51.628Z,0.46
2023-01-29T17:39:21.262Z,0.45
2023-01-29T17:41:56.204Z,0.43
2023-01-29T17:44:26.274Z,0.43
2023-01-29T17:46:53.931Z,0.45
2023-01-29T17:49:28.150Z,0.47
2023-01-29T17:51:56.708Z,0.48
2023-01-29T17:54:24.515Z,0.46
2023-01-29T17:56:53.051Z,0.46
2023-01-29T17:59:26.182Z,0.48
2023-01-29T18:01:53.746Z,0.50
2023-01-29T18:04:21.084Z,0.50
2023-01-29T18:06:50.537Z,0.48
2023-01-29T18:09:22.400Z,0.49
2023-01-29T18:11:50.899Z,0.50
2023-01-29T18:14:18.341Z,0.52
2023-01-29T18:16:45.649Z,0.52
2023-01-29T18:19:16.545Z,0.51
2023-01-29T18:21:43.780Z,0.51
2023-01-29T18:24:10.986Z,0.50
2023-01-29T18:26:38.359Z,0.49
2023-01-29T18:29:05.931Z,0.48
2023-01-29T18:31:33.184Z,0.47
2023-01-29T18:34:00.489Z,0.48
2023-01-29T18:36:27.686Z,0.48
2023-01-29T18:38:56.301Z,0.50
2023-01-29T18:41:23.921Z,0.49
2023-01-29T18:43:54.465Z,0.48
2023-01-29T18:46:24.330Z,0.48
2023-01-29T18:48:51.572Z,0.49
2023-01-29T18:51:18.785Z,0.51
2023-01-29T18:53:50.026Z,0.51
2023-01-29T18:56:17.282Z,0.52
2023-01-29T18:58:49.815Z,0.52
2023-01-29T19:01:19.528Z,0.52
2023-01-29T19:03:46.798Z,0.52
2023-01-29T19:06:13.994Z,0.51
2023-01-29T19:08:42.926Z,0.50
2023-01-29T19:11:12.663Z,0.48
2023-01-29T19:13:41.007Z,0.48
2023-01-29T19:16:10.003Z,0.47
2023-01-29T19:18:37.097Z,0.48
2023-01-29T19:21:10.573Z,0.50
2023-01-29T19:23:38.577Z,0.52
2023-01-29T19:26:06.318Z,0.52
2023-01-29T19:28:33.905Z,0.51
2023-01-29T19:31:01.713Z,0.51
2023-01-29T19:33:29.346Z,0.52
2023-01-29T19:36:00.078Z,0.52
2023-01-29T19:38:27.908Z,0.50
2023-01-29T19:40:58.040Z,0.47
2023-01-29T19:43:29.005Z,0.48
2023-01-29T19:46:01.196Z,0.49
2023-01-29T19:48:28.977Z,0.49
2023-01-29T19:50:58.386Z,0.50
2023-01-29T19:53:27.617Z,0.49
2023-01-29T19:56:08.748Z,0.49
2023-01-29T19:58:36.927Z,0.50
2023-01-29T20:01:07.951Z,0.52
2023-01-29T20:03:35.139Z,0.54
2023-01-29T20:06:04.242Z,0.54
2023-01-29T20:08:32.532Z,0.55
2023-01-29T20:11:00.193Z,0.57
2023-01-29T20:13:27.685Z,0.60
2023-01-29T20:15:55.867Z,0.62
2023-01-29T20:18:23.123Z,0.61
2023-01-29T20:20:53.163Z,0.61
2023-01-29T20:23:37.826Z,0.60
2023-01-29T20:26:12.556Z,0.60
2023-01-29T20:28:40.139Z,0.60
2023-01-29T20:31:09.103Z,0.60
2023-01-29T20:33:39.209Z,0.61
2023-01-29T20:36:10.480Z,0.64
2023-01-29T20:38:37.898Z,0.65
2023-01-29T20:41:06.773Z,0.63
2023-01-29T20:43:34.635Z,0.60
2023-01-29T20:46:02.473Z,0.57
2023-01-29T20:48:30.581Z,0.57
2023-01-29T20:51:04.533Z,0.56
2023-01-29T20:53:31.754Z,0.58
2023-01-29T20:55:59.066Z,0.60
2023-01-29T20:58:26.468Z,0.62
2023-01-29T21:00:53.613Z,0.62
2023-01-29T21:03:20.875Z,0.61
2023-01-29T21:05:48.096Z,0.60
2023-01-29T21:08:15.252Z,0.60
2023-01-29T21:10:43.356Z,0.61
2023-01-29T21:13:11.248Z,0.63
2023-01-29T21:15:38.562Z,0.62
2023-01-29T21:18:08.903Z,0.62
2023-01-29T21:20:36.528Z,0.63
2023-01-29T21:23:06.833Z,0.64
2023-01-29T21:25:34.424Z,0.66
2023-01-29T21:28:03.823Z,0.68
2023-01-29T21:30:31.049Z,0.67
2023-01-29T21:32:58.250Z,0.67
2023-01-29T21:35:26.295Z,0.68
2023-01-29T21:37:53.545Z,0.68
2023-01-29T21:40:21.360Z,0.70
2023-01-29T21:43:07.366Z,0.70
2023-01-29T21:45:35.727Z,0.68
2023-01-29T21:48:02.971Z,0.69
2023-01-29T21:50:30.290Z,0.71
2023-01-29T21:52:57.418Z,0.72
2023-01-29T21:55:24.594Z,0.73
2023-01-29T21:57:51.882Z,0.70
2023-01-29T22:00:19.815Z,0.68
2023-01-29T22:02:47.240Z,0.66
2023-01-29T22:05:19.433Z,0.66
2023-01-29T22:07:48.575Z,0.67
2023-01-29T22:10:19.755Z,0.67
2023-01-29T22:12:48.178Z,0.68
2023-01-29T22:15:16.269Z,0.69
2023-01-29T22:17:43.955Z,0.69
2023-01-29T22:20:16.802Z,0.71
2023-01-29T22:22:44.196Z,0.70
2023-01-29T22:25:20.111Z,0.69
2023-01-29T22:27:47.381Z,0.69
2023-01-29T22:30:14.774Z,0.72
2023-01-29T22:32:42.300Z,0.74
2023-01-29T22:35:10.650Z,0.74
2023-01-29T22:37:37.820Z,0.73
2023-01-29T22:40:05.653Z,0.70
2023-01-29T22:42:32.788Z,0.70
2023-01-29T22:44:59.986Z,0.70
2023-01-29T22:47:27.187Z,0.70
2023-01-29T22:49:54.492Z,0.69
2023-01-29T22:52:22.478Z,0.68
2023-01-29T22:54:51.568Z,0.67
2023-01-29T22:57:19.812Z,0.69
2023-01-29T22:59:46.999Z,0.69
2023-01-29T23:02:14.146Z,0.72
2023-01-29T23:04:41.383Z,0.75
2023-01-29T23:07:08.594Z,0.74
2023-01-29T23:09:35.729Z,0.73
2023-01-29T23:12:02.873Z,0.73
2023-01-29T23:14:29.991Z,0.73
2023-01-29T23:16:57.361Z,0.74
2023-01-29T23:19:24.685Z,0.74
2023-01-29T23:21:51.783Z,0.73
2023-01-29T23:24:19.067Z,0.72
2023-01-29T23:27:04.689Z,0.71
2023-01-29T23:29:31.827Z,0.74
2023-01-29T23:31:58.934Z,0.76
2023-01-29T23:34:26.056Z,0.76
2023-01-29T23:36:53.186Z,0.74
2023-01-29T23:39:20.725Z,0.75
2023-01-29T23:41:47.849Z,0.75
2023-01-29T23:44:15.034Z,0.73
2023-01-29T23:46:42.287Z,0.75
2023-01-29T23:49:09.401Z,0.75
2023-01-29T23:51:36.590Z,0.72
2023-01-29T23:54:04.353Z,0.72
2023-01-29T23:56:31.627Z,0.70
2023-01-29T23:58:58.790Z,0.70
